createdAt,value
2019-03-21T00:01:11.104Z,72.34
2019-03-21T00:04:19.952Z,72.97
2019-03-21T00:07:28.748Z,73.25
2019-03-21T00:11:50.254Z,73.68
2019-03-21T00:15:12.127Z,72.75
2019-03-21T00:18:21.292Z,73.12
2019-03-21T00:21:30.644Z,73.24
2019-03-21T00:24:43.143Z,73.52
2019-03-21T00:27:52.614Z,72.68
2019-03-21T00:31:01.631Z,72.96
2019-03-21T00:34:10.788Z,73.15
2019-03-21T00:37:19.745Z,73.31
2019-03-21T00:40:31.969Z,71.94
2019-03-21T00:43:43.001Z,72.05
2019-03-21T00:46:52.048Z,72.14
2019-03-21T00:50:00.782Z,72.03
2019-03-21T00:53:11.781Z,73.28
2019-03-21T00:56:20.677Z,72.93
2019-03-21T00:59:30.049Z,73.27
2019-03-21T01:02:39.763Z,73.32
2019-03-21T01:05:49.301Z,72.46
2019-03-21T01:09:00.255Z,72.11
2019-03-21T01:12:10.813Z,72.53
2019-03-21T01:15:19.991Z,73.66
2019-03-21T01:18:29.243Z,73.69
2019-03-21T01:21:41.117Z,73.73
2019-03-21T01:24:49.919Z,73.85
2019-03-21T01:28:01.032Z,73.45
2019-03-21T01:31:10.268Z,72.70
2019-03-21T01:34:19.073Z,72.74
2019-03-21T01:37:27.962Z,73.67
2019-03-21T01:40:39.107Z,73.40
2019-03-21T01:43:49.675Z,72.59
2019-03-21T01:46:59.228Z,73.18
2019-03-21T01:50:09.468Z,75.32
2019-03-21T01:53:18.931Z,73.38
2019-03-21T01:56:30.523Z,73.26
2019-03-21T01:59:41.829Z,72.97
2019-03-21T02:02:53.150Z,72.51
2019-03-21T02:06:01.853Z,73.09
2019-03-21T02:09:11.891Z,72.57
2019-03-21T02:12:20.849Z,72.65
2019-03-21T02:15:34.185Z,72.49
2019-03-21T02:18:44.812Z,71.48
2019-03-21T02:21:52.728Z,70.90
2019-03-21T02:25:00.417Z,71.19
2019-03-21T02:28:08.463Z,71.78
2019-03-21T02:31:16.121Z,71.60
2019-03-21T02:34:23.814Z,72.11
2019-03-21T02:37:31.443Z,72.23
2019-03-21T02:40:39.563Z,72.42
2019-03-21T02:43:48.068Z,72.31
2019-03-21T02:46:55.767Z,72.51
2019-03-21T02:50:03.414Z,72.40
2019-03-21T02:53:11.154Z,72.90
2019-03-21T02:56:22.583Z,72.92
2019-03-21T02:59:30.288Z,73.39
2019-03-21T03:02:40.973Z,73.35
2019-03-21T03:05:48.627Z,73.85
2019-03-21T03:08:56.461Z,74.16
2019-03-21T03:12:06.109Z,74.74
2019-03-21T03:15:22.944Z,74.81
2019-03-21T03:18:31.268Z,75.29
2019-03-21T03:21:38.850Z,74.87
2019-03-21T03:24:46.656Z,75.19
2019-03-21T03:27:56.677Z,75.67
2019-03-21T03:31:04.534Z,74.80
2019-03-21T03:34:12.220Z,75.11
2019-03-21T03:37:19.864Z,75.18
2019-03-21T03:40:32.295Z,74.93
2019-03-21T03:43:40.230Z,75.37
2019-03-21T03:46:47.876Z,76.26
2019-03-21T03:49:55.572Z,75.50
2019-03-21T03:53:03.133Z,75.46
2019-03-21T03:56:11.775Z,75.51
2019-03-21T03:59:20.659Z,76.05
2019-03-21T04:02:28.326Z,75.96
2019-03-21T04:05:39.908Z,75.83
2019-03-21T04:08:47.594Z,75.70
2019-03-21T04:11:55.284Z,76.25
2019-03-21T04:15:02.951Z,75.75
2019-03-21T04:18:10.711Z,76.29
2019-03-21T04:21:18.484Z,75.68
2019-03-21T04:24:26.112Z,76.07
2019-03-21T04:27:35.318Z,75.72
2019-03-21T04:30:43.273Z,76.00
2019-03-21T04:33:51.524Z,75.73
2019-03-21T04:36:59.115Z,76.05
2019-03-21T04:40:07.654Z,76.58
2019-03-21T04:43:15.629Z,75.73
2019-03-21T04:46:23.207Z,75.68
2019-03-21T04:49:30.938Z,76.46
2019-03-21T04:52:38.605Z,76.46
2019-03-21T04:56:05.197Z,75.70
2019-03-21T04:59:12.887Z,75.73
2019-03-21T05:02:21.011Z,75.81
2019-03-21T05:05:29.763Z,76.47
2019-03-21T05:08:37.428Z,76.07
2019-03-21T05:11:45.075Z,76.00
2019-03-21T05:14:52.654Z,76.51
2019-03-21T05:18:04.949Z,76.55
2019-03-21T05:21:14.264Z,76.63
2019-03-21T05:24:21.873Z,77.18
2019-03-21T05:27:29.585Z,76.57
2019-03-21T05:30:42.900Z,76.52
2019-03-21T05:33:50.466Z,75.82
2019-03-21T05:36:58.086Z,76.20
2019-03-21T05:40:07.046Z,76.73
2019-03-21T05:43:19.458Z,76.81
2019-03-21T05:46:28.860Z,76.92
2019-03-21T05:49:36.909Z,76.54
2019-03-21T05:52:44.796Z,75.47
2019-03-21T05:55:52.611Z,75.91
2019-03-21T05:59:00.170Z,76.71
2019-03-21T06:02:07.867Z,76.40
2019-03-21T06:05:16.734Z,76.54
2019-03-21T06:08:29.617Z,76.28
2019-03-21T06:11:39.583Z,76.51
2019-03-21T06:14:53.556Z,75.20
2019-03-21T06:18:55.199Z,76.34
2019-03-21T06:22:55.989Z,76.39
2019-03-21T06:26:51.447Z,75.52
2019-03-21T06:29:59.486Z,76.23
2019-03-21T06:33:07.155Z,75.81
2019-03-21T06:36:15.905Z,75.93
2019-03-21T06:39:27.657Z,75.48
2019-03-21T06:42:35.366Z,75.70
2019-03-21T06:45:48.198Z,74.86
2019-03-21T06:48:54.085Z,73.54
2019-03-21T06:52:01.701Z,73.41
2019-03-21T06:55:09.452Z,74.17
2019-03-21T06:58:18.097Z,73.27
2019-03-21T07:01:25.722Z,73.59
2019-03-21T07:04:33.413Z,72.78
2019-03-21T07:07:41.288Z,71.88
2019-03-21T07:10:49.133Z,72.37
2019-03-21T07:13:56.985Z,71.63
2019-03-21T07:17:05.852Z,70.89
2019-03-21T07:20:14.384Z,70.05
2019-03-21T07:23:22.026Z,69.78
2019-03-21T07:26:33.021Z,70.73
2019-03-21T07:29:40.714Z,69.13
2019-03-21T07:32:48.482Z,70.64
2019-03-21T07:35:56.136Z,68.98
2019-03-21T07:39:04.201Z,69.86
2019-03-21T07:42:11.796Z,69.46
2019-03-21T07:45:19.588Z,68.82
2019-03-21T07:48:28.863Z,67.43
2019-03-21T07:51:39.612Z,67.69
2019-03-21T07:54:47.408Z,67.56
2019-03-21T07:57:56.167Z,66.68
2019-03-21T08:01:03.870Z,67.94
2019-03-21T08:04:11.542Z,66.25
2019-03-21T08:07:19.113Z,66.60
2019-03-21T08:10:28.471Z,62.98
2019-03-21T08:13:36.162Z,61.56
2019-03-21T08:16:43.936Z,62.35
2019-03-21T08:19:51.611Z,61.21
2019-03-21T08:22:59.461Z,62.05
2019-03-21T08:26:07.129Z,61.82
2019-03-21T08:29:14.835Z,60.83
2019-03-21T08:32:23.203Z,58.36
2019-03-21T08:35:30.877Z,57.26
2019-03-21T08:38:38.670Z,56.22
2019-03-21T08:41:46.346Z,56.93
2019-03-21T08:44:53.979Z,57.55
2019-03-21T08:48:01.666Z,57.13
2019-03-21T08:51:09.336Z,57.34
2019-03-21T08:54:17.159Z,56.85
2019-03-21T08:57:24.941Z,56.66
2019-03-21T09:00:34.513Z,56.03
2019-03-21T09:03:41.875Z,55.55
2019-03-21T09:06:49.644Z,55.99
2019-03-21T09:09:57.288Z,55.54
2019-03-21T09:13:05.231Z,56.14
2019-03-21T09:16:12.879Z,56.07
2019-03-21T09:19:20.583Z,55.86
2019-03-21T09:22:28.246Z,55.82
2019-03-21T09:25:36.901Z,55.07
2019-03-21T09:28:44.613Z,54.52
2019-03-21T09:31:52.336Z,54.05
2019-03-21T09:35:00.076Z,51.79
2019-03-21T09:38:07.893Z,52.80
2019-03-21T09:41:15.635Z,51.37
2019-03-21T09:44:29.992Z,52.61
2019-03-21T09:47:38.291Z,51.22
2019-03-21T09:50:46.145Z,51.87
2019-03-21T09:53:53.868Z,50.19
2019-03-21T09:57:02.392Z,51.96
2019-03-21T10:00:10.231Z,51.09
2019-03-21T10:03:19.051Z,51.45
2019-03-21T10:06:27.159Z,51.85
2019-03-21T10:09:34.995Z,50.65
2019-03-21T10:12:42.629Z,52.42
2019-03-21T10:15:52.572Z,52.28
2019-03-21T10:19:00.327Z,53.59
2019-03-21T10:22:08.012Z,53.68
2019-03-21T10:25:15.844Z,53.91
2019-03-21T10:28:23.567Z,54.07
2019-03-21T10:31:31.170Z,52.31
2019-03-21T10:34:38.821Z,53.33
2019-03-21T10:37:46.518Z,52.79
2019-03-21T10:40:54.248Z,51.78
2019-03-21T10:44:02.029Z,52.60
2019-03-21T10:47:10.100Z,52.09
2019-03-21T10:50:28.171Z,52.92
2019-03-21T10:53:35.923Z,53.16
2019-03-21T10:56:43.728Z,52.01
2019-03-21T10:59:51.631Z,51.74
2019-03-21T11:02:59.376Z,51.69
2019-03-21T11:06:08.190Z,50.71
2019-03-21T11:09:15.853Z,51.60
2019-03-21T11:12:23.547Z,50.26
2019-03-21T11:15:31.336Z,50.67
2019-03-21T11:18:40.203Z,50.66
2019-03-21T11:21:47.991Z,50.94
2019-03-21T11:24:55.827Z,50.03
2019-03-21T11:28:03.499Z,50.01
2019-03-21T11:31:11.217Z,50.44
2019-03-21T11:34:20.407Z,52.30
2019-03-21T11:37:28.173Z,49.04
2019-03-21T11:40:35.971Z,49.17
2019-03-21T11:43:43.630Z,50.45
2019-03-21T11:46:51.350Z,49.23
2019-03-21T11:49:59.050Z,50.26
2019-03-21T11:53:06.771Z,49.71
2019-03-21T11:56:19.040Z,48.13
2019-03-21T11:59:41.263Z,48.39
2019-03-21T12:02:36.653Z,47.89
2019-03-21T12:05:44.326Z,48.33
2019-03-21T12:08:52.118Z,48.02
2019-03-21T12:11:59.779Z,49.24
2019-03-21T12:15:09.591Z,50.51
2019-03-21T12:18:17.327Z,49.40
2019-03-21T12:21:31.217Z,49.65
2019-03-21T12:24:39.101Z,49.11
2019-03-21T12:27:46.973Z,49.15
2019-03-21T12:30:54.744Z,49.89
2019-03-21T12:34:02.546Z,48.82
2019-03-21T12:37:11.644Z,48.77
2019-03-21T12:40:19.390Z,49.38
2019-03-21T12:43:27.176Z,48.71
2019-03-21T12:46:35.047Z,49.29
2019-03-21T12:49:42.726Z,48.39
2019-03-21T12:52:50.639Z,48.90
2019-03-21T12:56:00.522Z,48.27
2019-03-21T12:59:08.313Z,47.72
2019-03-21T13:02:16.044Z,50.15
2019-03-21T13:05:30.164Z,48.72
2019-03-21T13:08:37.852Z,49.46
2019-03-21T13:11:45.743Z,48.31
2019-03-21T13:14:53.456Z,50.93
2019-03-21T13:18:01.685Z,48.54
2019-03-21T13:21:09.411Z,49.44
2019-03-21T13:24:19.595Z,48.38
2019-03-21T13:27:26.843Z,48.44
2019-03-21T13:30:37.884Z,48.01
2019-03-21T13:33:45.756Z,48.00
2019-03-21T13:36:54.859Z,49.00
2019-03-21T13:40:05.118Z,46.54
2019-03-21T13:43:13.133Z,48.61
2019-03-21T13:46:20.939Z,46.06
2019-03-21T13:49:29.781Z,47.08
2019-03-21T13:52:37.577Z,46.57
2019-03-21T13:55:45.524Z,45.70
2019-03-21T13:58:53.444Z,45.28
2019-03-21T14:02:02.705Z,47.47
2019-03-21T14:05:10.665Z,47.36
2019-03-21T14:08:20.563Z,47.74
2019-03-21T14:11:28.266Z,46.70
2019-03-21T14:14:36.112Z,47.13
2019-03-21T14:17:43.940Z,47.04
2019-03-21T14:20:52.763Z,47.75
2019-03-21T14:24:01.034Z,46.92
2019-03-21T14:27:09.836Z,45.32
2019-03-21T14:30:18.431Z,46.75
2019-03-21T14:33:26.270Z,46.33
2019-03-21T14:36:34.217Z,45.55
2019-03-21T14:39:42.036Z,45.84
2019-03-21T14:42:49.854Z,47.25
2019-03-21T14:45:57.650Z,47.61
2019-03-21T14:49:05.395Z,47.77
2019-03-21T14:52:13.092Z,46.88
2019-03-21T14:55:20.933Z,47.10
2019-03-21T14:58:29.209Z,47.17
2019-03-21T15:01:40.864Z,47.43
2019-03-21T15:04:48.894Z,48.23
2019-03-21T15:07:56.633Z,47.84
2019-03-21T15:11:17.140Z,47.22
2019-03-21T15:14:25.468Z,47.86
2019-03-21T15:17:33.391Z,48.96
2019-03-21T15:20:43.086Z,49.23
2019-03-21T15:23:59.348Z,48.54
2019-03-21T15:27:02.421Z,46.64
2019-03-21T15:30:13.952Z,47.00
2019-03-21T15:33:21.910Z,46.00
2019-03-21T15:36:29.680Z,46.74
2019-03-21T15:39:37.461Z,46.35
2019-03-21T15:42:47.338Z,47.25
2019-03-21T15:45:55.524Z,46.92
2019-03-21T15:49:06.101Z,48.61
2019-03-21T15:52:14.114Z,47.34
2019-03-21T15:55:21.884Z,47.62
2019-03-21T15:58:29.618Z,48.84
2019-03-21T16:01:37.493Z,49.06
2019-03-21T16:04:48.206Z,48.92
2019-03-21T16:07:55.955Z,50.62
2019-03-21T16:11:04.733Z,50.86
2019-03-21T16:14:13.430Z,52.17
2019-03-21T16:17:21.092Z,51.38
2019-03-21T16:20:29.492Z,51.41
2019-03-21T16:23:37.098Z,51.89
2019-03-21T16:26:44.833Z,51.78
2019-03-21T16:29:55.559Z,53.86
2019-03-21T16:33:03.502Z,53.85
2019-03-21T16:36:14.385Z,55.30
2019-03-21T16:39:22.102Z,56.23
2019-03-21T16:42:29.956Z,55.58
2019-03-21T16:45:37.774Z,55.41
2019-03-21T16:48:47.496Z,56.91
2019-03-21T16:51:57.914Z,58.70
2019-03-21T16:55:08.183Z,59.39
2019-03-21T16:58:18.896Z,59.54
2019-03-21T17:01:26.817Z,59.05
2019-03-21T17:04:34.744Z,60.25
2019-03-21T17:07:42.396Z,60.09
2019-03-21T17:10:50.211Z,61.04
2019-03-21T17:13:57.979Z,61.45
2019-03-21T17:17:11.384Z,65.21
2019-03-21T17:20:19.047Z,64.61
2019-03-21T17:23:26.818Z,64.11
2019-03-21T17:26:34.398Z,64.93
2019-03-21T17:29:42.116Z,67.45
2019-03-21T17:32:50.840Z,67.01
2019-03-21T17:35:58.873Z,65.57
2019-03-21T17:39:10.532Z,64.92
2019-03-21T17:42:21.179Z,65.61
2019-03-21T17:45:29.483Z,65.24
2019-03-21T17:48:37.289Z,65.31
2019-03-21T17:51:46.697Z,65.59
2019-03-21T17:54:57.631Z,66.71
2019-03-21T17:58:05.451Z,66.20
2019-03-21T18:01:13.504Z,68.09
2019-03-21T18:04:21.315Z,67.18
2019-03-21T18:07:29.175Z,67.22
2019-03-21T18:10:37.569Z,67.26
2019-03-21T18:13:46.366Z,67.78
2019-03-21T18:16:55.834Z,66.76
2019-03-21T18:20:06.203Z,69.04
2019-03-21T18:23:17.471Z,71.70
2019-03-21T18:26:26.651Z,71.51
2019-03-21T18:29:35.504Z,76.48
2019-03-21T18:32:44.530Z,74.24
2019-03-21T18:35:53.652Z,75.04
2019-03-21T18:39:03.769Z,72.16
2019-03-21T18:42:13.162Z,72.43
2019-03-21T18:45:23.045Z,74.09
2019-03-21T18:48:32.124Z,76.41
2019-03-21T18:51:41.474Z,73.08
2019-03-21T18:54:50.522Z,73.87
2019-03-21T18:58:00.365Z,73.99
2019-03-21T19:01:12.614Z,72.26
2019-03-21T19:04:22.135Z,73.61
2019-03-21T19:07:33.017Z,72.10
2019-03-21T19:10:44.752Z,75.80
2019-03-21T19:13:55.682Z,77.00
2019-03-21T19:17:07.416Z,80.18
2019-03-21T19:20:17.118Z,77.34
2019-03-21T19:23:26.265Z,83.85
2019-03-21T19:26:35.025Z,81.99
2019-03-21T19:29:47.274Z,82.99
2019-03-21T19:32:56.155Z,82.96
2019-03-21T19:36:08.657Z,80.32
2019-03-21T19:39:17.801Z,78.92
2019-03-21T19:42:26.813Z,77.84
2019-03-21T19:45:35.757Z,83.89
2019-03-21T19:48:50.482Z,81.97
2019-03-21T19:51:56.556Z,82.11
2019-03-21T19:55:05.740Z,81.21
2019-03-21T19:58:16.367Z,84.75
2019-03-21T20:01:25.357Z,79.36
2019-03-21T20:04:34.216Z,77.05
2019-03-21T20:07:43.688Z,77.49
2019-03-21T20:10:52.919Z,77.94
2019-03-21T20:14:03.982Z,81.61
2019-03-21T20:17:12.436Z,80.14
2019-03-21T20:20:21.392Z,79.02
2019-03-21T20:23:30.582Z,78.09
2019-03-21T20:26:39.243Z,80.04
2019-03-21T20:29:48.109Z,78.64
2019-03-21T20:32:57.405Z,78.33
2019-03-21T20:36:08.535Z,81.88
2019-03-21T20:39:17.824Z,81.04
2019-03-21T20:42:26.613Z,81.45
2019-03-21T20:45:35.578Z,81.43
2019-03-21T20:48:41.021Z,80.32
2019-03-21T20:51:54.293Z,80.25
2019-03-21T20:55:05.744Z,81.75
2019-03-21T20:58:14.847Z,81.21
2019-03-21T21:01:23.542Z,83.91
2019-03-21T21:04:31.320Z,86.52
2019-03-21T21:07:39.740Z,86.55
2019-03-21T21:10:47.617Z,86.89
2019-03-21T21:13:55.459Z,84.42
2019-03-21T21:17:05.402Z,84.34
2019-03-21T21:20:15.272Z,83.91
2019-03-21T21:23:23.122Z,81.66
2019-03-21T21:26:30.830Z,81.48
2019-03-21T21:29:38.873Z,79.36
2019-03-21T21:32:46.874Z,79.15
2019-03-21T21:35:54.855Z,81.18
2019-03-21T21:39:02.711Z,81.69
2019-03-21T21:42:11.141Z,80.88
2019-03-21T21:45:19.470Z,81.70
2019-03-21T21:48:27.203Z,82.60
2019-03-21T21:51:35.046Z,84.33
2019-03-21T21:54:42.659Z,84.09
2019-03-21T21:57:50.421Z,84.05
2019-03-21T22:01:03.911Z,82.17
2019-03-21T22:04:11.991Z,82.33
2019-03-21T22:07:21.145Z,82.18
2019-03-21T22:10:29.601Z,81.52
2019-03-21T22:13:40.099Z,79.91
2019-03-21T22:16:47.856Z,80.35
2019-03-21T22:19:55.765Z,80.05
2019-03-21T22:23:03.435Z,79.34
2019-03-21T22:26:11.268Z,80.21
2019-03-21T22:29:18.924Z,81.22
2019-03-21T22:32:26.656Z,80.47
2019-03-21T22:35:34.538Z,79.95
2019-03-21T22:38:43.336Z,79.97
2019-03-21T22:41:51.180Z,81.66
2019-03-21T22:44:59.256Z,84.00
2019-03-21T22:48:07.380Z,83.98
2019-03-21T22:51:15.086Z,83.86
2019-03-21T22:54:22.912Z,83.03
2019-03-21T22:57:30.549Z,83.99
2019-03-21T23:00:46.262Z,82.89
2019-03-21T23:03:54.570Z,84.08
2019-03-21T23:07:02.261Z,84.47
2019-03-21T23:10:11.383Z,82.85
2019-03-21T23:13:19.056Z,83.58
2019-03-21T23:16:26.786Z,83.51
2019-03-21T23:19:36.013Z,83.43
2019-03-21T23:22:43.712Z,84.94
2019-03-21T23:25:51.536Z,85.20
2019-03-21T23:28:59.302Z,82.83
2019-03-21T23:32:09.978Z,84.53
2019-03-21T23:35:17.941Z,84.01
2019-03-21T23:38:25.672Z,84.39
2019-03-21T23:41:33.466Z,84.21
2019-03-21T23:44:41.117Z,82.56
2019-03-21T23:47:49.230Z,83.71
2019-03-21T23:50:56.893Z,83.81
2019-03-21T23:54:05.160Z,83.66
2019-03-21T23:57:12.811Z,83.87
